sensor_id;sensor_type;location;lat;lon;timestamp;pressure;altitude;pressure_sealevel;temperature;humidity
27334;BME280;14817;57.104;-2.094;2023-04-30T00:02:01;101241.84;;;6.28;100.00
27334;BME280;14817;57.104;-2.094;2023-04-30T00:04:28;101244.84;;;6.37;100.00
27334;BME280;14817;57.104;-2.094;2023-04-30T00:06:55;101233.22;;;6.38;100.00
27334;BME280;14817;57.104;-2.094;2023-04-30T00:09:22;101236.13;;;6.34;100.00
27334;BME280;14817;57.104;-2.094;2023-04-30T00:11:48;101227.50;;;6.31;100.00
27334;BME280;14817;57.104;-2.094;2023-04-30T00:14:15;101224.97;;;6.29;100.00
27334;BME280;14817;57.104;-2.094;2023-04-30T00:16:42;101226.66;;;6.30;100.00
27334;BME280;14817;57.104;-2.094;2023-04-30T00:19:09;101220.59;;;6.28;100.00
27334;BME280;14817;57.104;-2.094;2023-04-30T00:21:36;101218.56;;;6.19;100.00
27334;BME280;14817;57.104;-2.094;2023-04-30T00:24:02;101213.78;;;6.24;100.00
27334;BME280;14817;57.104;-2.094;2023-04-30T00:26:29;101213.03;;;6.22;100.00
27334;BME280;14817;57.104;-2.094;2023-04-30T00:28:56;101214.63;;;6.25;100.00
27334;BME280;14817;57.104;-2.094;2023-04-30T00:31:23;101213.03;;;6.22;100.00
27334;BME280;14817;57.104;-2.094;2023-04-30T00:33:50;101208.69;;;6.21;100.00
27334;BME280;14817;57.104;-2.094;2023-04-30T00:36:17;101207.38;;;6.27;100.00
27334;BME280;14817;57.104;-2.094;2023-04-30T00:38:44;101207.28;;;6.28;100.00
27334;BME280;14817;57.104;-2.094;2023-04-30T00:41:12;101204.63;;;6.28;100.00
27334;BME280;14817;57.104;-2.094;2023-04-30T00:43:38;101201.97;;;6.28;100.00
27334;BME280;14817;57.104;-2.094;2023-04-30T00:46:05;101206.22;;;6.18;100.00
27334;BME280;14817;57.104;-2.094;2023-04-30T00:48:32;101200.38;;;6.26;100.00
27334;BME280;14817;57.104;-2.094;2023-04-30T00:51:01;101194.63;;;6.19;100.00
27334;BME280;14817;57.104;-2.094;2023-04-30T00:53:30;101202.63;;;6.19;100.00
27334;BME280;14817;57.104;-2.094;2023-04-30T00:55:57;101195.38;;;6.21;100.00
27334;BME280;14817;57.104;-2.094;2023-04-30T00:58:24;101198.88;;;6.22;100.00
27334;BME280;14817;57.104;-2.094;2023-04-30T01:00:51;101200.28;;;6.27;100.00
27334;BME280;14817;57.104;-2.094;2023-04-30T01:03:19;101196.44;;;6.19;100.00
27334;BME280;14817;57.104;-2.094;2023-04-30T01:05:46;101199.19;;;6.30;100.00
27334;BME280;14817;57.104;-2.094;2023-04-30T01:08:13;101194.41;;;6.22;100.00
27334;BME280;14817;57.104;-2.094;2023-04-30T01:10:55;101190.16;;;6.20;100.00
27334;BME280;14817;57.104;-2.094;2023-04-30T01:13:29;101185.06;;;6.29;100.00
27334;BME280;14817;57.104;-2.094;2023-04-30T01:16:14;101178.53;;;6.33;100.00
27334;BME280;14817;57.104;-2.094;2023-04-30T01:18:58;101186.50;;;6.33;100.00
27334;BME280;14817;57.104;-2.094;2023-04-30T01:21:27;101181.09;;;6.35;100.00
27334;BME280;14817;57.104;-2.094;2023-04-30T01:24:14;101184.31;;;6.40;100.00
27334;BME280;14817;57.104;-2.094;2023-04-30T01:26:58;101176.31;;;6.40;100.00
27334;BME280;14817;57.104;-2.094;2023-04-30T01:29:33;101182.47;;;6.41;100.00
27334;BME280;14817;57.104;-2.094;2023-04-30T01:32:01;101174.59;;;6.39;100.00
27334;BME280;14817;57.104;-2.094;2023-04-30T01:34:29;101185.91;;;6.30;100.00
27334;BME280;14817;57.104;-2.094;2023-04-30T01:48:30;101163.75;;;6.42;100.00
27334;BME280;14817;57.104;-2.094;2023-04-30T01:51:07;101165.78;;;6.39;100.00
27334;BME280;14817;57.104;-2.094;2023-04-30T01:53:41;101157.34;;;6.45;100.00
27334;BME280;14817;57.104;-2.094;2023-04-30T01:58:52;101151.63;;;6.38;100.00
27334;BME280;14817;57.104;-2.094;2023-04-30T02:01:30;101150.75;;;6.38;100.00
27334;BME280;14817;57.104;-2.094;2023-04-30T02:03:58;101147.47;;;6.47;100.00
27334;BME280;14817;57.104;-2.094;2023-04-30T02:06:26;101147.16;;;6.39;100.00
27334;BME280;14817;57.104;-2.094;2023-04-30T02:08:55;101137.59;;;6.36;100.00
27334;BME280;14817;57.104;-2.094;2023-04-30T02:11:28;101137.47;;;6.38;100.00
27334;BME280;14817;57.104;-2.094;2023-04-30T02:13:55;101142.69;;;6.39;100.00
27334;BME280;14817;57.104;-2.094;2023-04-30T02:16:22;101135.44;;;6.41;100.00
27334;BME280;14817;57.104;-2.094;2023-04-30T02:18:50;101136.06;;;6.45;100.00
27334;BME280;14817;57.104;-2.094;2023-04-30T02:21:17;101127.13;;;6.46;100.00
27334;BME280;14817;57.104;-2.094;2023-04-30T02:23:45;101133.91;;;6.50;100.00
27334;BME280;14817;57.104;-2.094;2023-04-30T02:26:12;101126.69;;;6.52;100.00
27334;BME280;14817;57.104;-2.094;2023-04-30T02:28:39;101114.34;;;6.51;100.00
27334;BME280;14817;57.104;-2.094;2023-04-30T02:31:06;101117.50;;;6.56;100.00
27334;BME280;14817;57.104;-2.094;2023-04-30T02:33:33;101110.50;;;6.55;100.00
27334;BME280;14817;57.104;-2.094;2023-04-30T02:36:00;101115.94;;;6.53;100.00
27334;BME280;14817;57.104;-2.094;2023-04-30T02:38:27;101107.94;;;6.53;100.00
27334;BME280;14817;57.104;-2.094;2023-04-30T02:40:54;101113.78;;;6.59;100.00
27334;BME280;14817;57.104;-2.094;2023-04-30T02:43:21;101111.34;;;6.56;100.00
27334;BME280;14817;57.104;-2.094;2023-04-30T02:45:48;101110.50;;;6.55;100.00
27334;BME280;14817;57.104;-2.094;2023-04-30T02:48:15;101108.56;;;6.57;100.00
27334;BME280;14817;57.104;-2.094;2023-04-30T02:50:41;101104.09;;;6.58;100.00
27334;BME280;14817;57.104;-2.094;2023-04-30T02:53:08;101102.03;;;6.61;100.00
27334;BME280;14817;57.104;-2.094;2023-04-30T02:55:35;101102.38;;;6.57;100.00
27334;BME280;14817;57.104;-2.094;2023-04-30T02:58:02;101101.09;;;6.62;100.00
27334;BME280;14817;57.104;-2.094;2023-04-30T03:00:29;101094.06;;;6.61;100.00
27334;BME280;14817;57.104;-2.094;2023-04-30T03:02:56;101099.38;;;6.61;100.00
27334;BME280;14817;57.104;-2.094;2023-04-30T03:05:23;101091.09;;;6.66;100.00
27334;BME280;14817;57.104;-2.094;2023-04-30T03:07:50;101088.88;;;6.60;100.00
27334;BME280;14817;57.104;-2.094;2023-04-30T03:10:17;101080.75;;;6.61;100.00
27334;BME280;14817;57.104;-2.094;2023-04-30T03:12:44;101085.25;;;6.61;100.00
27334;BME280;14817;57.104;-2.094;2023-04-30T03:15:11;101088.28;;;6.67;100.00
27334;BME280;14817;57.104;-2.094;2023-04-30T03:17:38;101077.88;;;6.64;100.00
27334;BME280;14817;57.104;-2.094;2023-04-30T03:20:05;101078.84;;;6.63;100.00
27334;BME280;14817;57.104;-2.094;2023-04-30T03:22:32;101079.56;;;6.65;100.00
27334;BME280;14817;57.104;-2.094;2023-04-30T03:24:59;101080.31;;;6.67;100.00
27334;BME280;14817;57.104;-2.094;2023-04-30T03:27:26;101073.50;;;6.63;100.00
27334;BME280;14817;57.104;-2.094;2023-04-30T03:29:53;101074.25;;;6.65;100.00
27334;BME280;14817;57.104;-2.094;2023-04-30T03:32:20;101067.00;;;6.67;100.00
27334;BME280;14817;57.104;-2.094;2023-04-30T03:34:47;101069.78;;;6.66;100.00
27334;BME280;14817;57.104;-2.094;2023-04-30T03:37:14;101063.84;;;6.62;100.00
27334;BME280;14817;57.104;-2.094;2023-04-30T03:39:41;101066.72;;;6.59;100.00
27334;BME280;14817;57.104;-2.094;2023-04-30T03:42:21;101062.13;;;6.61;100.00
27334;BME280;14817;57.104;-2.094;2023-04-30T03:44:48;101062.25;;;6.60;100.00
27334;BME280;14817;57.104;-2.094;2023-04-30T03:47:15;101056.06;;;6.59;100.00
27334;BME280;14817;57.104;-2.094;2023-04-30T03:49:42;101052.00;;;6.66;100.00
27334;BME280;14817;57.104;-2.094;2023-04-30T03:52:09;101053.94;;;6.64;100.00
27334;BME280;14817;57.104;-2.094;2023-04-30T03:54:36;101048.38;;;6.67;100.00
27334;BME280;14817;57.104;-2.094;2023-04-30T03:57:03;101050.19;;;6.67;100.00
27334;BME280;14817;57.104;-2.094;2023-04-30T03:59:31;101049.56;;;6.63;100.00
27334;BME280;14817;57.104;-2.094;2023-04-30T04:01:59;101047.97;;;6.61;100.00
27334;BME280;14817;57.104;-2.094;2023-04-30T04:04:28;101046.78;;;6.65;100.00
27334;BME280;14817;57.104;-2.094;2023-04-30T04:06:55;101051.91;;;6.68;100.00
27334;BME280;14817;57.104;-2.094;2023-04-30T04:09:22;101051.16;;;6.66;100.00
27334;BME280;14817;57.104;-2.094;2023-04-30T04:11:49;101045.59;;;6.69;100.00
27334;BME280;14817;57.104;-2.094;2023-04-30T04:14:16;101054.66;;;6.66;100.00
27334;BME280;14817;57.104;-2.094;2023-04-30T04:16:43;101043.78;;;6.69;100.00
27334;BME280;14817;57.104;-2.094;2023-04-30T04:19:10;101037.28;;;6.73;100.00
27334;BME280;14817;57.104;-2.094;2023-04-30T04:21:38;101045.63;;;6.80;100.00
27334;BME280;14817;57.104;-2.094;2023-04-30T04:24:12;101036.25;;;6.87;100.00
27334;BME280;14817;57.104;-2.094;2023-04-30T04:26:39;101032.22;;;6.82;100.00
27334;BME280;14817;57.104;-2.094;2023-04-30T04:29:07;101035.13;;;6.79;100.00
27334;BME280;14817;57.104;-2.094;2023-04-30T04:31:36;101028.81;;;6.80;100.00
27334;BME280;14817;57.104;-2.094;2023-04-30T04:34:04;101032.97;;;6.84;100.00
27334;BME280;14817;57.104;-2.094;2023-04-30T04:36:31;101025.91;;;6.83;100.00
27334;BME280;14817;57.104;-2.094;2023-04-30T04:39:00;101027.06;;;6.91;100.00
27334;BME280;14817;57.104;-2.094;2023-04-30T04:41:32;101025.59;;;6.87;100.00
27334;BME280;14817;57.104;-2.094;2023-04-30T04:43:59;101030.56;;;6.92;100.00
27334;BME280;14817;57.104;-2.094;2023-04-30T04:46:29;101027.06;;;6.91;100.00
27334;BME280;14817;57.104;-2.094;2023-04-30T04:48:56;101020.03;;;6.90;100.00
27334;BME280;14817;57.104;-2.094;2023-04-30T04:51:23;101025.25;;;6.92;100.00
27334;BME280;14817;57.104;-2.094;2023-04-30T04:53:50;101021.84;;;6.90;100.00
27334;BME280;14817;57.104;-2.094;2023-04-30T04:56:18;101023.31;;;6.94;100.00
27334;BME280;14817;57.104;-2.094;2023-04-30T04:58:44;101024.16;;;6.94;100.00
27334;BME280;14817;57.104;-2.094;2023-04-30T05:01:11;101025.97;;;6.94;100.00
27334;BME280;14817;57.104;-2.094;2023-04-30T05:03:38;101017.84;;;6.95;100.00
27334;BME280;14817;57.104;-2.094;2023-04-30T05:06:06;101018.94;;;6.93;100.00
27334;BME280;14817;57.104;-2.094;2023-04-30T05:08:33;101021.59;;;6.93;100.00
27334;BME280;14817;57.104;-2.094;2023-04-30T05:11:00;101017.63;;;6.99;100.00
27334;BME280;14817;57.104;-2.094;2023-04-30T05:13:27;101014.34;;;6.95;100.00
27334;BME280;14817;57.104;-2.094;2023-04-30T05:15:53;101013.41;;;6.96;100.00
27334;BME280;14817;57.104;-2.094;2023-04-30T05:18:21;100998.53;;;7.05;100.00
27334;BME280;14817;57.104;-2.094;2023-04-30T05:20:47;101001.19;;;7.05;100.00
27334;BME280;14817;57.104;-2.094;2023-04-30T05:23:14;100998.63;;;7.03;100.00
27334;BME280;14817;57.104;-2.094;2023-04-30T05:25:41;100998.63;;;7.03;100.00
27334;BME280;14817;57.104;-2.094;2023-04-30T05:28:08;101000.34;;;7.04;100.00
27334;BME280;14817;57.104;-2.094;2023-04-30T05:30:35;100992.94;;;7.08;100.00
27334;BME280;14817;57.104;-2.094;2023-04-30T05:33:02;100995.50;;;7.09;100.00
27334;BME280;14817;57.104;-2.094;2023-04-30T05:35:29;100987.75;;;7.06;100.00
27334;BME280;14817;57.104;-2.094;2023-04-30T05:37:56;100989.94;;;7.12;100.00
27334;BME280;14817;57.104;-2.094;2023-04-30T05:40:22;100990.66;;;7.14;100.00
27334;BME280;14817;57.104;-2.094;2023-04-30T05:42:49;100980.88;;;7.15;100.00
27334;BME280;14817;57.104;-2.094;2023-04-30T05:45:16;100990.66;;;7.14;100.00
27334;BME280;14817;57.104;-2.094;2023-04-30T05:47:43;100979.91;;;7.16;100.00
27334;BME280;14817;57.104;-2.094;2023-04-30T05:50:10;100989.34;;;7.20;100.00
27334;BME280;14817;57.104;-2.094;2023-04-30T05:52:37;100990.34;;;7.19;100.00
27334;BME280;14817;57.104;-2.094;2023-04-30T05:55:04;100985.13;;;7.18;100.00
27334;BME280;14817;57.104;-2.094;2023-04-30T05:57:31;100974.94;;;7.11;100.00
27334;BME280;14817;57.104;-2.094;2023-04-30T05:59:58;100972.00;;;7.14;100.00
27334;BME280;14817;57.104;-2.094;2023-04-30T06:02:24;100973.00;;;7.13;100.00
27334;BME280;14817;57.104;-2.094;2023-04-30T06:04:51;100960.41;;;7.15;100.00
27334;BME280;14817;57.104;-2.094;2023-04-30T06:07:18;100969.59;;;7.11;100.00
27334;BME280;14817;57.104;-2.094;2023-04-30T06:09:45;100970.81;;;7.07;100.00
27334;BME280;14817;57.104;-2.094;2023-04-30T06:12:11;100964.91;;;7.15;100.00
27334;BME280;14817;57.104;-2.094;2023-04-30T06:14:38;100960.88;;;7.09;100.00
27334;BME280;14817;57.104;-2.094;2023-04-30T06:17:08;100952.31;;;7.17;100.00
27334;BME280;14817;57.104;-2.094;2023-04-30T06:19:35;100956.41;;;7.10;100.00
27334;BME280;14817;57.104;-2.094;2023-04-30T06:22:04;100951.81;;;7.12;100.00
27334;BME280;14817;57.104;-2.094;2023-04-30T06:24:31;100944.91;;;7.09;100.00
27334;BME280;14817;57.104;-2.094;2023-04-30T06:26:57;100960.41;;;7.15;100.00
27334;BME280;14817;57.104;-2.094;2023-04-30T06:29:24;100960.88;;;7.21;100.00
27334;BME280;14817;57.104;-2.094;2023-04-30T06:31:55;100966.34;;;7.19;100.00
27334;BME280;14817;57.104;-2.094;2023-04-30T06:34:22;100966.09;;;7.22;100.00
27334;BME280;14817;57.104;-2.094;2023-04-30T06:36:48;100966.22;;;7.21;100.00
27334;BME280;14817;57.104;-2.094;2023-04-30T06:39:15;100961.03;;;7.19;100.00
27334;BME280;14817;57.104;-2.094;2023-04-30T06:41:42;100958.22;;;7.21;100.00
27334;BME280;14817;57.104;-2.094;2023-04-30T06:44:09;100963.31;;;7.24;100.00
27334;BME280;14817;57.104;-2.094;2023-04-30T06:46:36;100971.78;;;7.29;100.00
27334;BME280;14817;57.104;-2.094;2023-04-30T06:49:03;100965.63;;;7.28;100.00
27334;BME280;14817;57.104;-2.094;2023-04-30T06:51:30;100965.38;;;7.31;100.00
27334;BME280;14817;57.104;-2.094;2023-04-30T06:53:57;100953.41;;;7.37;100.00
27334;BME280;14817;57.104;-2.094;2023-04-30T06:56:23;100959.19;;;7.42;100.00
27334;BME280;14817;57.104;-2.094;2023-04-30T06:58:50;100959.09;;;7.44;100.00
27334;BME280;14817;57.104;-2.094;2023-04-30T07:01:17;100953.75;;;7.44;100.00
27334;BME280;14817;57.104;-2.094;2023-04-30T07:03:44;100962.47;;;7.46;100.00
27334;BME280;14817;57.104;-2.094;2023-04-30T07:06:11;100955.31;;;7.46;100.00
27334;BME280;14817;57.104;-2.094;2023-04-30T07:08:38;100954.59;;;7.44;100.00
27334;BME280;14817;57.104;-2.094;2023-04-30T07:11:06;100954.13;;;7.39;100.00
27334;BME280;14817;57.104;-2.094;2023-04-30T07:13:33;100950.97;;;7.45;100.00
27334;BME280;14817;57.104;-2.094;2023-04-30T07:16:00;100945.28;;;7.39;100.00
27334;BME280;14817;57.104;-2.094;2023-04-30T07:18:27;100951.94;;;7.44;100.00
27334;BME280;14817;57.104;-2.094;2023-04-30T07:20:54;100947.47;;;7.45;100.00
27334;BME280;14817;57.104;-2.094;2023-04-30T07:23:20;100942.88;;;7.47;100.00
27334;BME280;14817;57.104;-2.094;2023-04-30T07:25:47;100948.06;;;7.48;100.00
27334;BME280;14817;57.104;-2.094;2023-04-30T07:28:14;100938.88;;;7.41;100.00
27334;BME280;14817;57.104;-2.094;2023-04-30T07:30:41;100946.50;;;7.46;100.00
27334;BME280;14817;57.104;-2.094;2023-04-30T07:33:08;100937.91;;;7.53;100.00
27334;BME280;14817;57.104;-2.094;2023-04-30T07:35:35;100936.19;;;7.52;100.00
27334;BME280;14817;57.104;-2.094;2023-04-30T07:38:02;100933.41;;;7.54;100.00
27334;BME280;14817;57.104;-2.094;2023-04-30T07:40:31;100932.31;;;7.56;100.00
27334;BME280;14817;57.104;-2.094;2023-04-30T07:43:02;100938.25;;;7.60;100.00
27334;BME280;14817;57.104;-2.094;2023-04-30T07:45:30;100934.84;;;7.58;100.00
27334;BME280;14817;57.104;-2.094;2023-04-30T07:47:57;100937.91;;;7.53;100.00
27334;BME280;14817;57.104;-2.094;2023-04-30T07:50:24;100946.47;;;7.57;100.00
27334;BME280;14817;57.104;-2.094;2023-04-30T07:52:51;100943.81;;;7.57;100.00
27334;BME280;14817;57.104;-2.094;2023-04-30T07:55:17;100933.03;;;7.59;100.00
27334;BME280;14817;57.104;-2.094;2023-04-30T07:57:44;100926.75;;;7.60;100.00
27334;BME280;14817;57.104;-2.094;2023-04-30T08:00:11;100921.16;;;7.63;100.00
27334;BME280;14817;57.104;-2.094;2023-04-30T08:02:39;100914.00;;;7.63;100.00
27334;BME280;14817;57.104;-2.094;2023-04-30T08:05:06;100910.38;;;7.64;100.00
27334;BME280;14817;57.104;-2.094;2023-04-30T08:07:33;100903.22;;;7.65;100.00
27334;BME280;14817;57.104;-2.094;2023-04-30T08:10:00;100902.38;;;7.64;100.00
27334;BME280;14817;57.104;-2.094;2023-04-30T08:12:26;100904.41;;;7.72;100.00
27334;BME280;14817;57.104;-2.094;2023-04-30T08:15:01;100899.94;;;7.72;100.00
27334;BME280;14817;57.104;-2.094;2023-04-30T08:17:32;100896.69;;;7.69;100.00
27334;BME280;14817;57.104;-2.094;2023-04-30T08:20:00;100899.06;;;7.72;100.00
27334;BME280;14817;57.104;-2.094;2023-04-30T08:22:26;100898.13;;;7.73;100.00
27334;BME280;14817;57.104;-2.094;2023-04-30T08:24:53;100898.84;;;7.75;100.00
27334;BME280;14817;57.104;-2.094;2023-04-30T08:27:22;100901.63;;;7.73;100.00
27334;BME280;14817;57.104;-2.094;2023-04-30T08:29:48;100895.47;;;7.73;100.00
27334;BME280;14817;57.104;-2.094;2023-04-30T08:32:18;100895.94;;;7.67;100.00
27334;BME280;14817;57.104;-2.094;2023-04-30T08:34:45;100892.63;;;7.74;100.00
27334;BME280;14817;57.104;-2.094;2023-04-30T08:37:12;100886.25;;;7.77;100.00
27334;BME280;14817;57.104;-2.094;2023-04-30T08:39:38;100898.34;;;7.81;100.00
27334;BME280;14817;57.104;-2.094;2023-04-30T08:42:07;100889.69;;;7.89;100.00
27334;BME280;14817;57.104;-2.094;2023-04-30T08:44:36;100887.41;;;7.84;100.00
27334;BME280;14817;57.104;-2.094;2023-04-30T08:47:05;100885.44;;;7.97;100.00
27334;BME280;14817;57.104;-2.094;2023-04-30T08:49:33;100880.38;;;7.94;100.00
27334;BME280;14817;57.104;-2.094;2023-04-30T08:52:02;100880.25;;;7.96;100.00
27334;BME280;14817;57.104;-2.094;2023-04-30T08:54:30;100885.31;;;7.99;100.00
27334;BME280;14817;57.104;-2.094;2023-04-30T08:57:00;100871.59;;;8.04;100.00
27334;BME280;14817;57.104;-2.094;2023-04-30T08:59:28;100868.03;;;8.14;100.00
27334;BME280;14817;57.104;-2.094;2023-04-30T09:01:54;100863.28;;;8.18;100.00
27334;BME280;14817;57.104;-2.094;2023-04-30T09:04:21;100861.06;;;8.23;100.00
27334;BME280;14817;57.104;-2.094;2023-04-30T09:06:51;100860.31;;;8.32;100.00
27334;BME280;14817;57.104;-2.094;2023-04-30T09:09:18;100851.00;;;8.27;100.00
27334;BME280;14817;57.104;-2.094;2023-04-30T09:11:45;100854.97;;;8.32;100.00
27334;BME280;14817;57.104;-2.094;2023-04-30T09:14:12;100854.09;;;8.32;100.00
27334;BME280;14817;57.104;-2.094;2023-04-30T09:16:50;100853.38;;;8.30;100.00
27334;BME280;14817;57.104;-2.094;2023-04-30T09:19:28;100859.00;;;8.27;100.00
27334;BME280;14817;57.104;-2.094;2023-04-30T09:21:56;100856.34;;;8.27;100.00
27334;BME280;14817;57.104;-2.094;2023-04-30T09:24:23;100852.00;;;8.26;100.00
27334;BME280;14817;57.104;-2.094;2023-04-30T09:26:50;100856.22;;;8.28;100.00
27334;BME280;14817;57.104;-2.094;2023-04-30T09:29:17;100848.06;;;8.30;100.00
27334;BME280;14817;57.104;-2.094;2023-04-30T09:31:46;100844.53;;;8.29;100.00
27334;BME280;14817;57.104;-2.094;2023-04-30T09:34:13;100846.78;;;8.24;100.00
27334;BME280;14817;57.104;-2.094;2023-04-30T09:36:53;100843.44;;;8.32;100.00
27334;BME280;14817;57.104;-2.094;2023-04-30T09:39:21;100842.16;;;8.26;100.00
27334;BME280;14817;57.104;-2.094;2023-04-30T09:41:49;100833.44;;;8.24;100.00
27334;BME280;14817;57.104;-2.094;2023-04-30T09:44:34;100825.16;;;8.27;100.00
27334;BME280;14817;57.104;-2.094;2023-04-30T09:47:02;100826.91;;;8.38;100.00
27334;BME280;14817;57.104;-2.094;2023-04-30T09:49:29;100829.25;;;8.31;100.00
27334;BME280;14817;57.104;-2.094;2023-04-30T09:51:58;100815.91;;;8.31;100.00
27334;BME280;14817;57.104;-2.094;2023-04-30T09:54:27;100813.25;;;8.52;100.00
27334;BME280;14817;57.104;-2.094;2023-04-30T09:56:56;100815.34;;;8.49;100.00
27334;BME280;14817;57.104;-2.094;2023-04-30T09:59:32;100810.72;;;8.51;100.00
27334;BME280;14817;57.104;-2.094;2023-04-30T10:02:02;100817.78;;;8.52;100.00
27334;BME280;14817;57.104;-2.094;2023-04-30T10:04:41;100807.66;;;8.55;100.00
27334;BME280;14817;57.104;-2.094;2023-04-30T10:07:19;100810.38;;;8.65;100.00
27334;BME280;14817;57.104;-2.094;2023-04-30T10:10:08;100816.75;;;8.74;100.00
27334;BME280;14817;57.104;-2.094;2023-04-30T10:12:46;100825.16;;;8.69;100.00
27334;BME280;14817;57.104;-2.094;2023-04-30T10:15:16;100807.72;;;8.65;100.00
27334;BME280;14817;57.104;-2.094;2023-04-30T10:17:53;100817.47;;;8.76;100.00
27334;BME280;14817;57.104;-2.094;2023-04-30T10:20:25;100811.00;;;8.78;100.00
27334;BME280;14817;57.104;-2.094;2023-04-30T10:22:52;100812.66;;;8.70;100.00
27334;BME280;14817;57.104;-2.094;2023-04-30T10:25:19;100806.47;;;8.69;100.00
27334;BME280;14817;57.104;-2.094;2023-04-30T10:27:48;100799.88;;;8.73;100.00
27334;BME280;14817;57.104;-2.094;2023-04-30T10:30:16;100794.00;;;8.79;100.00
27334;BME280;14817;57.104;-2.094;2023-04-30T10:35:25;100801.03;;;8.81;100.00
27334;BME280;14817;57.104;-2.094;2023-04-30T10:38:03;100796.16;;;8.86;100.00
27334;BME280;14817;57.104;-2.094;2023-04-30T10:40:38;100796.88;;;8.88;100.00
27334;BME280;14817;57.104;-2.094;2023-04-30T10:43:05;100798.28;;;8.92;100.00
27334;BME280;14817;57.104;-2.094;2023-04-30T10:45:36;100781.97;;;8.95;100.00
27334;BME280;14817;57.104;-2.094;2023-04-30T10:48:05;100786.78;;;9.01;100.00
27334;BME280;14817;57.104;-2.094;2023-04-30T10:50:39;100779.78;;;9.19;100.00
27334;BME280;14817;57.104;-2.094;2023-04-30T10:53:16;100776.19;;;9.40;100.00
27334;BME280;14817;57.104;-2.094;2023-04-30T10:56:27;100765.50;;;9.30;100.00
27334;BME280;14817;57.104;-2.094;2023-04-30T10:58:39;100771.38;;;9.34;100.00
27334;BME280;14817;57.104;-2.094;2023-04-30T11:01:13;100765.22;;;9.43;100.00
27334;BME280;14817;57.104;-2.094;2023-04-30T11:03:43;100760.44;;;9.66;100.00
27334;BME280;14817;57.104;-2.094;2023-04-30T11:09:17;100750.25;;;10.18;100.00
27334;BME280;14817;57.104;-2.094;2023-04-30T11:11:44;100758.59;;;9.96;100.00
27334;BME280;14817;57.104;-2.094;2023-04-30T11:14:19;100750.84;;;9.83;100.00
27334;BME280;14817;57.104;-2.094;2023-04-30T11:16:52;100745.25;;;9.67;100.00
27334;BME280;14817;57.104;-2.094;2023-04-30T11:19:21;100742.72;;;9.65;100.00
27334;BME280;14817;57.104;-2.094;2023-04-30T11:24:52;100743.81;;;9.72;100.00
27334;BME280;14817;57.104;-2.094;2023-04-30T11:27:24;100731.44;;;9.61;100.00
27334;BME280;14817;57.104;-2.094;2023-04-30T11:29:52;100725.25;;;9.71;100.00
27334;BME280;14817;57.104;-2.094;2023-04-30T11:32:21;100722.56;;;9.51;100.00
27334;BME280;14817;57.104;-2.094;2023-04-30T11:34:49;100722.03;;;9.67;100.00
27334;BME280;14817;57.104;-2.094;2023-04-30T11:38:02;100712.28;;;9.86;100.00
27334;BME280;14817;57.104;-2.094;2023-04-30T11:40:14;100710.72;;;9.93;100.00
27334;BME280;14817;57.104;-2.094;2023-04-30T11:42:42;100703.84;;;9.90;100.00
27334;BME280;14817;57.104;-2.094;2023-04-30T11:45:14;100703.00;;;9.80;100.00
27334;BME280;14817;57.104;-2.094;2023-04-30T11:47:51;100701.81;;;10.12;100.00
27334;BME280;14817;57.104;-2.094;2023-04-30T11:50:21;100700.94;;;10.21;100.00
27334;BME280;14817;57.104;-2.094;2023-04-30T11:52:56;100695.59;;;10.11;100.00
27334;BME280;14817;57.104;-2.094;2023-04-30T11:55:26;100692.66;;;10.05;100.00
27334;BME280;14817;57.104;-2.094;2023-04-30T11:57:54;100694.25;;;9.97;100.00
27334;BME280;14817;57.104;-2.094;2023-04-30T12:00:28;100697.06;;;9.96;100.00
27334;BME280;14817;57.104;-2.094;2023-04-30T12:02:58;100687.34;;;9.85;100.00
27334;BME280;14817;57.104;-2.094;2023-04-30T12:05:26;100690.50;;;9.51;100.00
27334;BME280;14817;57.104;-2.094;2023-04-30T12:07:58;100691.91;;;9.55;100.00
27334;BME280;14817;57.104;-2.094;2023-04-30T12:10:25;100685.00;;;9.63;100.00
27334;BME280;14817;57.104;-2.094;2023-04-30T12:12:52;100675.31;;;9.52;100.00
27334;BME280;14817;57.104;-2.094;2023-04-30T12:15:22;100684.59;;;9.48;100.00
27334;BME280;14817;57.104;-2.094;2023-04-30T12:17:59;100668.97;;;9.63;100.00
27334;BME280;14817;57.104;-2.094;2023-04-30T12:20:36;100669.94;;;9.61;100.00
27334;BME280;14817;57.104;-2.094;2023-04-30T12:23:03;100671.66;;;9.63;100.00
27334;BME280;14817;57.104;-2.094;2023-04-30T12:25:38;100681.09;;;9.37;100.00
27334;BME280;14817;57.104;-2.094;2023-04-30T12:28:05;100681.06;;;9.28;100.00
27334;BME280;14817;57.104;-2.094;2023-04-30T12:30:32;100679.13;;;9.39;100.00
27334;BME280;14817;57.104;-2.094;2023-04-30T12:32:59;100676.41;;;9.30;100.00
27334;BME280;14817;57.104;-2.094;2023-04-30T12:35:29;100678.28;;;9.39;100.00
27334;BME280;14817;57.104;-2.094;2023-04-30T12:38:04;100672.78;;;9.50;100.00
27334;BME280;14817;57.104;-2.094;2023-04-30T12:40:32;100672.06;;;9.48;100.00
27334;BME280;14817;57.104;-2.094;2023-04-30T12:43:07;100673.47;;;9.52;100.00
27334;BME280;14817;57.104;-2.094;2023-04-30T12:45:50;100671.22;;;9.67;100.00
27334;BME280;14817;57.104;-2.094;2023-04-30T12:48:19;100669.78;;;9.73;100.00
27334;BME280;14817;57.104;-2.094;2023-04-30T12:53:20;100664.44;;;9.73;100.00
27334;BME280;14817;57.104;-2.094;2023-04-30T12:56:15;100650.09;;;10.21;100.00
27334;BME280;14817;57.104;-2.094;2023-04-30T12:58:44;100640.78;;;10.35;100.00
27334;BME280;14817;57.104;-2.094;2023-04-30T13:01:18;100642.75;;;10.60;100.00
27334;BME280;14817;57.104;-2.094;2023-04-30T13:03:46;100633.63;;;10.53;100.00
27334;BME280;14817;57.104;-2.094;2023-04-30T13:06:13;100634.56;;;10.34;100.00
27334;BME280;14817;57.104;-2.094;2023-04-30T13:08:39;100623.63;;;10.18;100.00
27334;BME280;14817;57.104;-2.094;2023-04-30T13:11:23;100619.78;;;10.30;100.00
27334;BME280;14817;57.104;-2.094;2023-04-30T13:13:52;100619.38;;;10.35;100.00
27334;BME280;14817;57.104;-2.094;2023-04-30T13:16:22;100617.25;;;10.29;100.00